sensor_id;sensor_type;location;lat;lon;timestamp;pressure;altitude;pressure_sealevel;temperature;humidity
70954;BME280;58618;47.490;8.736;2022-08-14T00:01:02;96160.22;;;13.24;85.03
70954;BME280;58618;47.490;8.736;2022-08-14T00:03:49;96147.53;;;13.14;84.59
70954;BME280;58618;47.490;8.736;2022-08-14T00:06:37;96152.44;;;13.15;85.98
70954;BME280;58618;47.490;8.736;2022-08-14T00:09:25;96149.72;;;13.20;85.71
70954;BME280;58618;47.490;8.736;2022-08-14T00:12:12;96151.44;;;13.33;86.51
70954;BME280;58618;47.490;8.736;2022-08-14T00:15:00;96147.63;;;13.31;85.90
70954;BME280;58618;47.490;8.736;2022-08-14T00:17:50;96143.75;;;13.20;86.75
70954;BME280;58618;47.490;8.736;2022-08-14T00:20:41;96138.81;;;13.09;87.40
70954;BME280;58618;47.490;8.736;2022-08-14T00:23:28;96139.38;;;13.06;87.87
70954;BME280;58618;47.490;8.736;2022-08-14T00:26:17;96128.44;;;13.09;88.47
70954;BME280;58618;47.490;8.736;2022-08-14T00:29:04;96125.38;;;13.07;88.55
70954;BME280;58618;47.490;8.736;2022-08-14T00:31:51;96120.19;;;13.07;88.13
70954;BME280;58618;47.490;8.736;2022-08-14T00:34:39;96125.66;;;13.06;88.50
70954;BME280;58618;47.490;8.736;2022-08-14T00:37:26;96115.00;;;12.99;88.58
70954;BME280;58618;47.490;8.736;2022-08-14T00:40:16;96124.88;;;12.97;88.90
70954;BME280;58618;47.490;8.736;2022-08-14T00:43:05;96124.69;;;12.93;89.39
70954;BME280;58618;47.490;8.736;2022-08-14T00:45:52;96128.47;;;12.87;89.96
70954;BME280;58618;47.490;8.736;2022-08-14T00:48:40;96115.66;;;12.82;89.23
70954;BME280;58618;47.490;8.736;2022-08-14T00:51:27;96121.31;;;12.84;88.26
70954;BME280;58618;47.490;8.736;2022-08-14T00:54:18;96114.97;;;12.68;89.39
70954;BME280;58618;47.490;8.736;2022-08-14T00:57:06;96119.66;;;12.66;90.20
70954;BME280;58618;47.490;8.736;2022-08-14T00:59:55;96107.31;;;12.63;90.12
70954;BME280;58618;47.490;8.736;2022-08-14T01:02:43;96106.06;;;12.60;89.40
70954;BME280;58618;47.490;8.736;2022-08-14T01:05:31;96098.03;;;12.62;90.13
70954;BME280;58618;47.490;8.736;2022-08-14T01:08:21;96098.31;;;12.60;90.20
70954;BME280;58618;47.490;8.736;2022-08-14T01:11:09;96104.84;;;12.36;89.67
70954;BME280;58618;47.490;8.736;2022-08-14T01:14:01;96101.38;;;12.40;90.76
70954;BME280;58618;47.490;8.736;2022-08-14T01:16:50;96096.34;;;12.44;91.03
70954;BME280;58618;47.490;8.736;2022-08-14T01:19:37;96110.56;;;12.33;90.17
70954;BME280;58618;47.490;8.736;2022-08-14T01:22:44;96095.38;;;12.31;90.57
70954;BME280;58618;47.490;8.736;2022-08-14T01:25:31;96099.53;;;12.41;91.73
70954;BME280;58618;47.490;8.736;2022-08-14T01:28:19;96082.78;;;12.38;90.92
70954;BME280;58618;47.490;8.736;2022-08-14T01:31:09;96079.31;;;12.43;90.36
70954;BME280;58618;47.490;8.736;2022-08-14T01:34:00;96077.44;;;12.35;90.53
70954;BME280;58618;47.490;8.736;2022-08-14T01:36:48;96071.91;;;12.27;92.30
70954;BME280;58618;47.490;8.736;2022-08-14T01:39:37;96080.50;;;12.37;92.02
70954;BME280;58618;47.490;8.736;2022-08-14T01:42:25;96078.72;;;12.46;91.77
70954;BME280;58618;47.490;8.736;2022-08-14T01:45:14;96080.31;;;12.33;91.42
70954;BME280;58618;47.490;8.736;2022-08-14T01:48:02;96080.72;;;12.26;92.28
70954;BME280;58618;47.490;8.736;2022-08-14T01:50:50;96081.06;;;12.34;92.37
70954;BME280;58618;47.490;8.736;2022-08-14T01:53:43;96073.03;;;12.35;92.32
70954;BME280;58618;47.490;8.736;2022-08-14T01:56:34;96065.56;;;12.34;92.09
70954;BME280;58618;47.490;8.736;2022-08-14T01:59:25;96064.03;;;12.33;92.18
70954;BME280;58618;47.490;8.736;2022-08-14T02:02:18;96061.56;;;12.27;90.93
70954;BME280;58618;47.490;8.736;2022-08-14T02:05:07;96063.31;;;12.18;92.21
70954;BME280;58618;47.490;8.736;2022-08-14T02:07:54;96064.47;;;12.12;91.48
70954;BME280;58618;47.490;8.736;2022-08-14T02:10:42;96062.94;;;12.11;92.65
70954;BME280;58618;47.490;8.736;2022-08-14T02:13:31;96072.13;;;12.17;92.28
70954;BME280;58618;47.490;8.736;2022-08-14T02:16:20;96059.19;;;12.17;91.73
70954;BME280;58618;47.490;8.736;2022-08-14T02:19:12;96067.19;;;12.07;91.63
70954;BME280;58618;47.490;8.736;2022-08-14T02:22:00;96055.13;;;12.03;91.51
70954;BME280;58618;47.490;8.736;2022-08-14T02:24:48;96049.41;;;11.92;91.67
70954;BME280;58618;47.490;8.736;2022-08-14T02:27:36;96051.94;;;11.83;92.09
70954;BME280;58618;47.490;8.736;2022-08-14T02:30:28;96043.31;;;11.88;92.67
70954;BME280;58618;47.490;8.736;2022-08-14T02:33:15;96044.25;;;11.92;92.77
70954;BME280;58618;47.490;8.736;2022-08-14T02:36:04;96039.34;;;11.91;91.74
70954;BME280;58618;47.490;8.736;2022-08-14T02:38:51;96043.19;;;11.93;93.01
70954;BME280;58618;47.490;8.736;2022-08-14T02:41:39;96031.91;;;11.89;91.86
70954;BME280;58618;47.490;8.736;2022-08-14T02:44:27;96032.19;;;11.88;92.02
70954;BME280;58618;47.490;8.736;2022-08-14T02:47:16;96022.25;;;11.81;92.73
70954;BME280;58618;47.490;8.736;2022-08-14T02:50:04;96014.03;;;11.65;92.69
70954;BME280;58618;47.490;8.736;2022-08-14T02:52:53;96014.22;;;11.69;93.40
70954;BME280;58618;47.490;8.736;2022-08-14T02:55:42;96010.22;;;11.76;93.57
70954;BME280;58618;47.490;8.736;2022-08-14T02:58:30;96005.97;;;11.80;93.69
70954;BME280;58618;47.490;8.736;2022-08-14T03:01:19;96012.50;;;11.78;93.09
70954;BME280;58618;47.490;8.736;2022-08-14T03:04:08;95998.34;;;11.75;93.81
70954;BME280;58618;47.490;8.736;2022-08-14T03:06:57;95986.22;;;11.62;93.99
70954;BME280;58618;47.490;8.736;2022-08-14T03:09:44;95985.13;;;11.63;94.04
70954;BME280;58618;47.490;8.736;2022-08-14T03:12:31;95985.56;;;11.57;93.78
70954;BME280;58618;47.490;8.736;2022-08-14T03:15:19;95973.09;;;11.59;93.78
70954;BME280;58618;47.490;8.736;2022-08-14T03:18:09;95972.22;;;11.63;94.34
70954;BME280;58618;47.490;8.736;2022-08-14T03:20:59;95969.47;;;11.60;93.30
70954;BME280;58618;47.490;8.736;2022-08-14T03:23:49;95965.94;;;11.56;92.91
70954;BME280;58618;47.490;8.736;2022-08-14T03:26:37;95949.97;;;11.54;93.05
70954;BME280;58618;47.490;8.736;2022-08-14T03:29:25;95952.84;;;11.52;93.60
70954;BME280;58618;47.490;8.736;2022-08-14T03:32:13;95958.97;;;11.56;94.12
70954;BME280;58618;47.490;8.736;2022-08-14T03:35:01;95963.34;;;11.56;93.24
70954;BME280;58618;47.490;8.736;2022-08-14T03:37:50;95953.97;;;11.60;93.21
70954;BME280;58618;47.490;8.736;2022-08-14T03:40:39;95968.91;;;11.63;93.92
70954;BME280;58618;47.490;8.736;2022-08-14T03:43:27;95959.91;;;11.60;94.30
70954;BME280;58618;47.490;8.736;2022-08-14T03:46:15;95977.31;;;11.68;94.63
70954;BME280;58618;47.490;8.736;2022-08-14T03:49:04;95979.56;;;11.70;93.98
70954;BME280;58618;47.490;8.736;2022-08-14T03:51:52;95995.28;;;11.60;94.47
70954;BME280;58618;47.490;8.736;2022-08-14T03:54:41;95987.53;;;11.60;95.39
70954;BME280;58618;47.490;8.736;2022-08-14T03:57:28;95990.84;;;11.38;95.66
70954;BME280;58618;47.490;8.736;2022-08-14T04:00:17;95982.31;;;11.37;95.71
70954;BME280;58618;47.490;8.736;2022-08-14T04:03:08;95978.91;;;11.28;95.29
70954;BME280;58618;47.490;8.736;2022-08-14T04:05:55;95968.28;;;11.16;95.13
70954;BME280;58618;47.490;8.736;2022-08-14T04:08:42;95979.50;;;11.25;95.03
70954;BME280;58618;47.490;8.736;2022-08-14T04:11:31;95976.03;;;11.30;95.57
70954;BME280;58618;47.490;8.736;2022-08-14T04:14:20;95982.84;;;11.12;95.64
70954;BME280;58618;47.490;8.736;2022-08-14T04:17:07;95985.41;;;11.12;95.49
70954;BME280;58618;47.490;8.736;2022-08-14T04:19:56;95983.22;;;11.19;95.13
70954;BME280;58618;47.490;8.736;2022-08-14T04:22:48;95974.53;;;11.15;94.95
70954;BME280;58618;47.490;8.736;2022-08-14T04:25:37;95966.13;;;11.10;95.20
70954;BME280;58618;47.490;8.736;2022-08-14T04:28:26;95977.94;;;11.24;94.70
70954;BME280;58618;47.490;8.736;2022-08-14T04:31:14;95972.59;;;11.34;94.55
70954;BME280;58618;47.490;8.736;2022-08-14T04:34:02;95971.78;;;11.48;94.42
70954;BME280;58618;47.490;8.736;2022-08-14T04:36:50;95963.84;;;11.58;94.18
70954;BME280;58618;47.490;8.736;2022-08-14T04:39:55;95965.66;;;11.57;93.78
70954;BME280;58618;47.490;8.736;2022-08-14T04:42:59;95979.78;;;11.60;93.41
70954;BME280;58618;47.490;8.736;2022-08-14T04:46:08;95967.06;;;11.63;93.09
70954;BME280;58618;47.490;8.736;2022-08-14T04:48:55;95968.13;;;11.62;92.95
70954;BME280;58618;47.490;8.736;2022-08-14T04:51:42;95975.78;;;11.54;92.62
70954;BME280;58618;47.490;8.736;2022-08-14T04:54:29;95976.44;;;11.59;92.16
70954;BME280;58618;47.490;8.736;2022-08-14T04:57:17;95985.72;;;11.60;92.58
70954;BME280;58618;47.490;8.736;2022-08-14T05:00:05;95987.09;;;11.58;93.25
70954;BME280;58618;47.490;8.736;2022-08-14T05:02:55;95992.03;;;11.68;93.06
70954;BME280;58618;47.490;8.736;2022-08-14T05:05:43;95990.69;;;11.84;92.56
70954;BME280;58618;47.490;8.736;2022-08-14T05:08:31;95995.19;;;12.01;91.70
70954;BME280;58618;47.490;8.736;2022-08-14T05:11:18;95997.25;;;12.12;91.01
70954;BME280;58618;47.490;8.736;2022-08-14T05:14:06;96002.97;;;12.23;91.73
70954;BME280;58618;47.490;8.736;2022-08-14T05:16:53;96000.78;;;12.39;91.06
70954;BME280;58618;47.490;8.736;2022-08-14T05:19:44;96002.81;;;12.50;90.81
70954;BME280;58618;47.490;8.736;2022-08-14T05:22:31;95992.38;;;12.64;90.91
70954;BME280;58618;47.490;8.736;2022-08-14T05:25:18;95987.13;;;12.78;91.36
70954;BME280;58618;47.490;8.736;2022-08-14T05:28:09;95986.03;;;13.09;89.53
70954;BME280;58618;47.490;8.736;2022-08-14T05:30:59;95992.50;;;13.21;87.31
70954;BME280;58618;47.490;8.736;2022-08-14T05:33:47;95980.38;;;13.90;85.37
70954;BME280;58618;47.490;8.736;2022-08-14T05:36:37;95974.91;;;14.72;79.95
70954;BME280;58618;47.490;8.736;2022-08-14T05:39:24;95966.31;;;14.80;77.90
70954;BME280;58618;47.490;8.736;2022-08-14T05:42:11;95966.69;;;16.33;72.63
70954;BME280;58618;47.490;8.736;2022-08-14T05:44:59;95961.97;;;17.96;65.16
70954;BME280;58618;47.490;8.736;2022-08-14T05:47:46;95956.06;;;18.86;61.46
70954;BME280;58618;47.490;8.736;2022-08-14T05:50:34;95954.88;;;19.69;58.25
70954;BME280;58618;47.490;8.736;2022-08-14T05:53:26;95939.28;;;20.80;54.20
70954;BME280;58618;47.490;8.736;2022-08-14T05:56:13;95939.56;;;21.20;53.84
70954;BME280;58618;47.490;8.736;2022-08-14T05:59:01;95935.16;;;21.58;52.53
70954;BME280;58618;47.490;8.736;2022-08-14T06:01:48;95927.88;;;22.07;49.88
70954;BME280;58618;47.490;8.736;2022-08-14T06:04:35;95923.94;;;22.68;48.67
70954;BME280;58618;47.490;8.736;2022-08-14T06:07:23;95918.25;;;23.13;45.95
70954;BME280;58618;47.490;8.736;2022-08-14T06:10:12;95924.41;;;23.35;46.24
70954;BME280;58618;47.490;8.736;2022-08-14T06:12:59;95913.13;;;24.53;41.73
70954;BME280;58618;47.490;8.736;2022-08-14T06:15:48;95906.59;;;25.46;40.13
70954;BME280;58618;47.490;8.736;2022-08-14T06:18:36;95892.25;;;25.47;40.62
70954;BME280;58618;47.490;8.736;2022-08-14T06:21:24;95914.56;;;26.26;38.65
70954;BME280;58618;47.490;8.736;2022-08-14T06:24:12;95913.63;;;26.51;39.28
70954;BME280;58618;47.490;8.736;2022-08-14T06:27:00;95906.69;;;26.67;37.92
70954;BME280;58618;47.490;8.736;2022-08-14T06:29:48;95917.84;;;26.96;37.22
70954;BME280;58618;47.490;8.736;2022-08-14T06:32:35;95913.00;;;27.25;36.18
70954;BME280;58618;47.490;8.736;2022-08-14T06:35:22;95915.91;;;27.38;35.83
70954;BME280;58618;47.490;8.736;2022-08-14T06:38:14;95920.69;;;27.84;35.07
70954;BME280;58618;47.490;8.736;2022-08-14T06:41:02;95915.84;;;28.05;35.33
70954;BME280;58618;47.490;8.736;2022-08-14T06:43:50;95918.47;;;28.36;34.13
70954;BME280;58618;47.490;8.736;2022-08-14T06:46:38;95917.59;;;28.92;33.58
70954;BME280;58618;47.490;8.736;2022-08-14T06:49:25;95915.38;;;28.41;34.83
70954;BME280;58618;47.490;8.736;2022-08-14T06:52:13;95914.44;;;28.51;34.32
70954;BME280;58618;47.490;8.736;2022-08-14T06:55:00;95910.88;;;28.38;35.26
70954;BME280;58618;47.490;8.736;2022-08-14T06:57:49;95915.38;;;28.41;35.14
70954;BME280;58618;47.490;8.736;2022-08-14T07:00:39;95916.09;;;28.68;34.89
70954;BME280;58618;47.490;8.736;2022-08-14T07:03:46;95913.94;;;28.86;35.08
70954;BME280;58618;47.490;8.736;2022-08-14T07:06:52;95916.91;;;28.88;34.54
70954;BME280;58618;47.490;8.736;2022-08-14T07:09:40;95916.78;;;28.72;35.58
70954;BME280;58618;47.490;8.736;2022-08-14T07:12:27;95927.06;;;28.70;35.38
70954;BME280;58618;47.490;8.736;2022-08-14T07:15:14;95926.22;;;29.20;35.08
70954;BME280;58618;47.490;8.736;2022-08-14T07:18:04;95921.31;;;28.48;35.83
70954;BME280;58618;47.490;8.736;2022-08-14T07:20:53;95924.72;;;29.19;35.15
70954;BME280;58618;47.490;8.736;2022-08-14T07:23:40;95916.81;;;28.95;35.14
70954;BME280;58618;47.490;8.736;2022-08-14T07:26:28;95912.16;;;29.62;34.55
70954;BME280;58618;47.490;8.736;2022-08-14T07:29:15;95905.00;;;30.31;32.58
70954;BME280;58618;47.490;8.736;2022-08-14T07:32:03;95916.31;;;30.35;32.94
70954;BME280;58618;47.490;8.736;2022-08-14T07:34:52;95913.22;;;29.85;34.17
70954;BME280;58618;47.490;8.736;2022-08-14T07:37:39;95921.66;;;28.77;36.50
70954;BME280;58618;47.490;8.736;2022-08-14T07:40:27;95921.25;;;28.52;36.89
70954;BME280;58618;47.490;8.736;2022-08-14T07:43:14;95917.22;;;29.37;35.17
70954;BME280;58618;47.490;8.736;2022-08-14T07:46:02;95908.00;;;29.61;34.82
70954;BME280;58618;47.490;8.736;2022-08-14T07:48:50;95912.28;;;29.95;35.56
70954;BME280;58618;47.490;8.736;2022-08-14T07:51:39;95912.09;;;30.21;34.28
70954;BME280;58618;47.490;8.736;2022-08-14T07:54:26;95919.16;;;30.12;34.87
70954;BME280;58618;47.490;8.736;2022-08-14T07:57:14;95917.50;;;30.18;34.58
70954;BME280;58618;47.490;8.736;2022-08-14T08:00:06;95920.75;;;30.42;34.14
70954;BME280;58618;47.490;8.736;2022-08-14T08:02:59;95912.59;;;28.75;35.85
70954;BME280;58618;47.490;8.736;2022-08-14T08:05:46;95916.31;;;29.63;35.84
70954;BME280;58618;47.490;8.736;2022-08-14T08:08:41;95901.03;;;29.67;35.31
70954;BME280;58618;47.490;8.736;2022-08-14T08:11:33;95889.56;;;29.54;36.01
70954;BME280;58618;47.490;8.736;2022-08-14T08:14:21;95885.72;;;30.11;34.71
70954;BME280;58618;47.490;8.736;2022-08-14T08:17:12;95887.47;;;30.17;35.47
70954;BME280;58618;47.490;8.736;2022-08-14T08:20:04;95898.72;;;29.69;34.35
70954;BME280;58618;47.490;8.736;2022-08-14T08:22:55;95906.66;;;29.93;35.37
70954;BME280;58618;47.490;8.736;2022-08-14T08:25:46;95897.63;;;30.23;35.34
70954;BME280;58618;47.490;8.736;2022-08-14T08:28:34;95897.16;;;29.92;36.05
70954;BME280;58618;47.490;8.736;2022-08-14T08:31:21;95900.84;;;30.14;36.04
70954;BME280;58618;47.490;8.736;2022-08-14T08:34:12;95904.44;;;30.24;35.78
70954;BME280;58618;47.490;8.736;2022-08-14T08:37:00;95887.72;;;30.23;35.39
70954;BME280;58618;47.490;8.736;2022-08-14T08:39:48;95891.03;;;30.11;36.00
70954;BME280;58618;47.490;8.736;2022-08-14T08:42:36;95888.28;;;29.78;36.74
70954;BME280;58618;47.490;8.736;2022-08-14T08:45:24;95879.22;;;29.17;37.74
70954;BME280;58618;47.490;8.736;2022-08-14T08:48:14;95883.59;;;29.07;38.91
70954;BME280;58618;47.490;8.736;2022-08-14T08:51:02;95880.09;;;28.44;37.57
70954;BME280;58618;47.490;8.736;2022-08-14T08:53:58;95871.06;;;27.84;40.53
70954;BME280;58618;47.490;8.736;2022-08-14T08:56:52;95856.59;;;28.42;37.99
70954;BME280;58618;47.490;8.736;2022-08-14T08:59:43;95863.44;;;28.40;39.37
70954;BME280;58618;47.490;8.736;2022-08-14T09:02:33;95858.44;;;28.69;37.85
70954;BME280;58618;47.490;8.736;2022-08-14T09:05:24;95858.47;;;26.49;41.50
70954;BME280;58618;47.490;8.736;2022-08-14T09:08:16;95858.63;;;27.13;40.11
70954;BME280;58618;47.490;8.736;2022-08-14T09:11:06;95863.00;;;27.30;40.35
70954;BME280;58618;47.490;8.736;2022-08-14T09:13:54;95858.84;;;26.96;40.46
70954;BME280;58618;47.490;8.736;2022-08-14T09:16:45;95866.09;;;28.17;38.11
70954;BME280;58618;47.490;8.736;2022-08-14T09:19:35;95861.25;;;27.51;39.42
70954;BME280;58618;47.490;8.736;2022-08-14T09:22:22;95859.13;;;26.60;41.15
70954;BME280;58618;47.490;8.736;2022-08-14T09:25:10;95866.41;;;28.19;39.63
70954;BME280;58618;47.490;8.736;2022-08-14T09:27:57;95869.06;;;27.65;39.38
70954;BME280;58618;47.490;8.736;2022-08-14T09:30:48;95863.81;;;28.42;37.01
70954;BME280;58618;47.490;8.736;2022-08-14T09:33:50;95863.09;;;28.61;36.96
70954;BME280;58618;47.490;8.736;2022-08-14T09:40:00;95866.63;;;29.01;37.50
70954;BME280;58618;47.490;8.736;2022-08-14T09:42:59;95870.97;;;29.11;36.24
70954;BME280;58618;47.490;8.736;2022-08-14T09:45:49;95872.97;;;28.61;38.21
70954;BME280;58618;47.490;8.736;2022-08-14T09:48:37;95881.56;;;28.22;38.90
70954;BME280;58618;47.490;8.736;2022-08-14T09:51:28;95875.06;;;27.96;40.20
70954;BME280;58618;47.490;8.736;2022-08-14T09:54:16;95872.28;;;27.76;40.18
70954;BME280;58618;47.490;8.736;2022-08-14T09:57:04;95869.50;;;27.60;39.41
70954;BME280;58618;47.490;8.736;2022-08-14T09:59:52;95857.63;;;27.38;40.49
70954;BME280;58618;47.490;8.736;2022-08-14T10:02:50;95848.66;;;27.28;39.06
70954;BME280;58618;47.490;8.736;2022-08-14T10:05:38;95830.38;;;27.03;39.40
70954;BME280;58618;47.490;8.736;2022-08-14T10:08:39;95833.84;;;26.97;38.99
70954;BME280;58618;47.490;8.736;2022-08-14T10:11:29;95818.84;;;25.87;41.01
70954;BME280;58618;47.490;8.736;2022-08-14T10:14:22;95807.38;;;26.11;39.66
70954;BME280;58618;47.490;8.736;2022-08-14T10:17:21;95818.16;;;26.34;41.35
70954;BME280;58618;47.490;8.736;2022-08-14T10:20:11;95818.34;;;26.58;42.43
70954;BME280;58618;47.490;8.736;2022-08-14T10:23:08;95812.63;;;26.63;40.63
70954;BME280;58618;47.490;8.736;2022-08-14T10:26:04;95819.34;;;26.71;39.65
70954;BME280;58618;47.490;8.736;2022-08-14T10:28:52;95821.56;;;26.76;42.02
70954;BME280;58618;47.490;8.736;2022-08-14T10:31:41;95824.94;;;26.80;41.34
70954;BME280;58618;47.490;8.736;2022-08-14T10:34:31;95821.13;;;26.81;38.67
70954;BME280;58618;47.490;8.736;2022-08-14T10:37:19;95812.25;;;26.64;38.76
70954;BME280;58618;47.490;8.736;2022-08-14T10:40:08;95812.00;;;26.48;39.97
70954;BME280;58618;47.490;8.736;2022-08-14T10:42:57;95798.03;;;26.44;40.04
70954;BME280;58618;47.490;8.736;2022-08-14T10:45:55;95809.81;;;26.77;40.77
70954;BME280;58618;47.490;8.736;2022-08-14T10:48:55;95804.53;;;26.77;41.43
70954;BME280;58618;47.490;8.736;2022-08-14T10:51:57;95805.97;;;26.85;40.58
70954;BME280;58618;47.490;8.736;2022-08-14T10:54:49;95807.88;;;26.81;39.42
70954;BME280;58618;47.490;8.736;2022-08-14T10:57:46;95805.25;;;26.81;39.67
70954;BME280;58618;47.490;8.736;2022-08-14T11:00:36;95808.22;;;26.86;39.77
70954;BME280;58618;47.490;8.736;2022-08-14T11:03:24;95794.22;;;26.89;38.79
70954;BME280;58618;47.490;8.736;2022-08-14T11:06:17;95798.47;;;27.17;40.63
70954;BME280;58618;47.490;8.736;2022-08-14T11:09:10;95780.63;;;27.21;39.05
70954;BME280;58618;47.490;8.736;2022-08-14T11:11:59;95797.75;;;27.44;39.57
70954;BME280;58618;47.490;8.736;2022-08-14T11:14:55;95781.78;;;27.51;38.45
70954;BME280;58618;47.490;8.736;2022-08-14T11:17:46;95797.47;;;27.35;37.45
70954;BME280;58618;47.490;8.736;2022-08-14T11:20:36;95785.13;;;27.55;38.12
70954;BME280;58618;47.490;8.736;2022-08-14T11:23:26;95773.78;;;27.81;38.57
70954;BME280;58618;47.490;8.736;2022-08-14T11:26:15;95789.59;;;28.11;37.38
70954;BME280;58618;47.490;8.736;2022-08-14T11:29:05;95815.28;;;28.41;36.88
70954;BME280;58618;47.490;8.736;2022-08-14T11:31:54;95809.03;;;28.51;35.80
70954;BME280;58618;47.490;8.736;2022-08-14T11:34:45;95793.88;;;28.52;35.67
70954;BME280;58618;47.490;8.736;2022-08-14T11:37:32;95793.81;;;28.55;36.29
70954;BME280;58618;47.490;8.736;2022-08-14T11:40:20;95802.69;;;28.69;35.33
70954;BME280;58618;47.490;8.736;2022-08-14T11:43:09;95796.81;;;28.58;36.07
70954;BME280;58618;47.490;8.736;2022-08-14T11:45:56;95806.56;;;28.64;36.40
70954;BME280;58618;47.490;8.736;2022-08-14T11:48:45;95814.31;;;28.55;34.46
70954;BME280;58618;47.490;8.736;2022-08-14T11:51:34;95797.56;;;28.58;35.96
70954;BME280;58618;47.490;8.736;2022-08-14T11:54:22;95798.75;;;28.34;35.94
70954;BME280;58618;47.490;8.736;2022-08-14T11:57:14;95808.28;;;28.51;36.37
70954;BME280;58618;47.490;8.736;2022-08-14T12:00:07;95805.88;;;28.60;35.46
70954;BME280;58618;47.490;8.736;2022-08-14T12:02:57;95782.69;;;28.64;35.75
70954;BME280;58618;47.490;8.736;2022-08-14T12:05:44;95813.56;;;28.98;36.50
70954;BME280;58618;47.490;8.736;2022-08-14T12:08:34;95808.03;;;29.08;36.56
70954;BME280;58618;47.490;8.736;2022-08-14T12:11:22;95783.59;;;28.97;36.79
70954;BME280;58618;47.490;8.736;2022-08-14T12:14:10;95809.69;;;29.42;37.03
70954;BME280;58618;47.490;8.736;2022-08-14T12:17:05;95802.81;;;29.44;36.77
70954;BME280;58618;47.490;8.736;2022-08-14T12:19:54;95801.66;;;29.61;35.45
70954;BME280;58618;47.490;8.736;2022-08-14T12:22:44;95801.38;;;29.75;35.61
70954;BME280;58618;47.490;8.736;2022-08-14T12:25:36;95789.66;;;29.89;34.92
70954;BME280;58618;47.490;8.736;2022-08-14T12:28:23;95781.69;;;30.05;34.19
70954;BME280;58618;47.490;8.736;2022-08-14T12:31:14;95790.59;;;30.15;35.89
70954;BME280;58618;47.490;8.736;2022-08-14T12:34:06;95791.84;;;30.27;34.05
70954;BME280;58618;47.490;8.736;2022-08-14T12:37:00;95777.88;;;30.06;33.93
70954;BME280;58618;47.490;8.736;2022-08-14T12:39:50;95784.84;;;30.00;33.93
70954;BME280;58618;47.490;8.736;2022-08-14T12:42:39;95790.44;;;29.90;34.83
70954;BME280;58618;47.490;8.736;2022-08-14T12:45:32;95779.91;;;29.83;36.35
70954;BME280;58618;47.490;8.736;2022-08-14T12:48:22;95779.56;;;29.64;37.15
70954;BME280;58618;47.490;8.736;2022-08-14T12:51:15;95777.94;;;29.70;35.80
70954;BME280;58618;47.490;8.736;2022-08-14T12:54:11;95770.41;;;29.49;36.87
70954;BME280;58618;47.490;8.736;2022-08-14T12:57:05;95776.56;;;29.26;35.41
70954;BME280;58618;47.490;8.736;2022-08-14T13:00:10;95759.19;;;29.22;35.63
70954;BME280;58618;47.490;8.736;2022-08-14T13:03:00;95761.50;;;29.20;35.63
70954;BME280;58618;47.490;8.736;2022-08-14T13:05:49;95777.44;;;29.20;33.54
70954;BME280;58618;47.490;8.736;2022-08-14T13:08:36;95752.28;;;28.88;35.01
70954;BME280;58618;47.490;8.736;2022-08-14T13:11:32;95756.28;;;28.77;34.06
70954;BME280;58618;47.490;8.736;2022-08-14T13:14:23;95757.59;;;28.88;35.08
70954;BME280;58618;47.490;8.736;2022-08-14T13:17:12;95747.03;;;29.05;32.96
70954;BME280;58618;47.490;8.736;2022-08-14T13:20:00;95729.94;;;29.06;33.20
70954;BME280;58618;47.490;8.736;2022-08-14T13:22:48;95721.63;;;29.04;33.44
70954;BME280;58618;47.490;8.736;2022-08-14T13:25:36;95743.16;;;28.89;33.58
70954;BME280;58618;47.490;8.736;2022-08-14T13:28:26;95738.22;;;28.68;33.04
70954;BME280;58618;47.490;8.736;2022-08-14T13:31:14;95721.47;;;28.71;32.48
70954;BME280;58618;47.490;8.736;2022-08-14T13:34:04;95711.16;;;28.96;32.46
70954;BME280;58618;47.490;8.736;2022-08-14T13:36:53;95726.88;;;29.07;33.39
70954;BME280;58618;47.490;8.736;2022-08-14T13:39:45;95723.28;;;28.98;33.22
70954;BME280;58618;47.490;8.736;2022-08-14T13:42:33;95710.00;;;29.14;32.65
70954;BME280;58618;47.490;8.736;2022-08-14T13:45:21;95719.47;;;29.15;33.42
70954;BME280;58618;47.490;8.736;2022-08-14T13:48:09;95708.63;;;29.25;31.70
70954;BME280;58618;47.490;8.736;2022-08-14T13:50:58;95696.06;;;29.10;32.16
70954;BME280;58618;47.490;8.736;2022-08-14T13:53:48;95718.63;;;29.02;32.37
70954;BME280;58618;47.490;8.736;2022-08-14T13:56:37;95720.94;;;29.00;32.75
70954;BME280;58618;47.490;8.736;2022-08-14T13:59:27;95713.66;;;29.04;33.81
70954;BME280;58618;47.490;8.736;2022-08-14T14:02:19;95709.94;;;28.81;33.41
70954;BME280;58618;47.490;8.736;2022-08-14T14:05:16;95693.38;;;28.54;33.86
70954;BME280;58618;47.490;8.736;2022-08-14T14:08:07;95683.38;;;28.42;33.33
70954;BME280;58618;47.490;8.736;2022-08-14T14:10:54;95666.50;;;28.09;35.09
70954;BME280;58618;47.490;8.736;2022-08-14T14:13:43;95702.78;;;28.16;34.75
70954;BME280;58618;47.490;8.736;2022-08-14T14:16:30;95677.59;;;27.81;34.55
70954;BME280;58618;47.490;8.736;2022-08-14T14:19:19;95652.59;;;27.58;35.40
70954;BME280;58618;47.490;8.736;2022-08-14T14:22:06;95683.19;;;27.63;34.49
70954;BME280;58618;47.490;8.736;2022-08-14T14:24:56;95672.50;;;27.66;34.75
70954;BME280;58618;47.490;8.736;2022-08-14T14:27:45;95678.56;;;27.67;35.57
70954;BME280;58618;47.490;8.736;2022-08-14T14:30:34;95671.38;;;27.41;36.47
70954;BME280;58618;47.490;8.736;2022-08-14T14:33:23;95694.25;;;27.58;36.41
70954;BME280;58618;47.490;8.736;2022-08-14T14:36:11;95664.69;;;27.33;37.19
70954;BME280;58618;47.490;8.736;2022-08-14T14:39:05;95693.94;;;27.52;36.24
70954;BME280;58618;47.490;8.736;2022-08-14T14:41:56;95665.38;;;27.37;36.07
70954;BME280;58618;47.490;8.736;2022-08-14T14:44:45;95692.38;;;27.55;36.27
70954;BME280;58618;47.490;8.736;2022-08-14T14:47:38;95659.69;;;27.11;36.68
70954;BME280;58618;47.490;8.736;2022-08-14T14:50:27;95649.19;;;27.04;37.77
70954;BME280;58618;47.490;8.736;2022-08-14T14:53:15;95658.41;;;26.96;37.62
70954;BME280;58618;47.490;8.736;2022-08-14T14:56:02;95673.88;;;26.98;37.52
70954;BME280;58618;47.490;8.736;2022-08-14T14:58:52;95696.72;;;27.15;37.84
70954;BME280;58618;47.490;8.736;2022-08-14T15:01:43;95696.78;;;27.11;39.34